Time;durP1;ratioP1;P1;durP2;ratioP2;P2;SDS_P1;SDS_P2;PMS_P1;PMS_P2;Temp;Humidity;BMP_temperature;BMP_pressure;BME280_temperature;BME280_humidity;BME280_pressure;Samples;Min_cycle;Max_cycle;Signal;HPM_P1;HPM_P2
2023/04/13 00:01:07;;;;;;;13.38;8.30;;;;;;;5.07;100.00;99321.59;4939593;29;20048;-72
2023/04/13 00:03:34;;;;;;;18.05;8.68;;;;;;;5.17;100.00;99318.81;4932738;29;20116;-71
2023/04/13 00:06:02;;;;;;;14.20;8.57;;;;;;;5.07;100.00;99323.41;4939378;29;20095;-72
2023/04/13 00:08:29;;;;;;;14.75;9.48;;;;;;;5.04;100.00;99317.44;4937184;29;20485;-66
2023/04/13 00:10:56;;;;;;;14.52;9.45;;;;;;;5.02;100.00;99292.84;4938951;29;20055;-65
2023/04/13 00:13:25;;;;;;;16.55;9.88;;;;;;;5.03;100.00;99298.97;4939186;29;20065;-66
2023/04/13 00:15:52;;;;;;;16.25;9.93;;;;;;;4.98;100.00;99314.59;4938101;29;20076;-67
2023/04/13 00:18:19;;;;;;;14.05;9.07;;;;;;;4.81;100.00;99317.13;4938443;29;20107;-69
2023/04/13 00:20:46;;;;;;;16.00;9.85;;;;;;;4.85;100.00;99300.88;4932748;29;20044;-66
2023/04/13 00:23:12;;;;;;;16.55;9.95;;;;;;;4.85;100.00;99303.53;4940166;29;20074;-66
2023/04/13 00:25:39;;;;;;;15.85;10.75;;;;;;;4.78;100.00;99306.00;4938340;29;20028;-68
2023/04/13 00:28:05;;;;;;;15.13;10.82;;;;;;;4.73;100.00;99314.44;4939436;29;20032;-70
2023/04/13 00:30:32;;;;;;;18.77;10.27;;;;;;;4.85;100.00;99306.19;4938824;29;20108;-72
2023/04/13 00:33:02;;;;;;;18.15;11.00;;;;;;;4.84;100.00;99318.66;4939196;29;20032;-65
2023/04/13 00:35:29;;;;;;;17.15;10.65;;;;;;;4.80;100.00;99323.47;4937085;29;20051;-66
2023/04/13 00:37:57;;;;;;;16.50;10.80;;;;;;;4.77;100.00;99322.94;4938988;29;20060;-67
2023/04/13 00:40:24;;;;;;;16.10;11.40;;;;;;;4.73;100.00;99329.56;4937831;29;20067;-68
2023/04/13 00:42:51;;;;;;;17.17;10.80;;;;;;;4.72;100.00;99338.50;4938924;29;20036;-69
2023/04/13 00:45:18;;;;;;;24.38;11.23;;;;;;;4.66;100.00;99347.09;4938729;29;20032;-69
2023/04/13 00:47:47;;;;;;;18.63;11.00;;;;;;;4.70;100.00;99351.94;4916221;29;20052;-71
2023/04/13 00:50:17;;;;;;;19.17;11.15;;;;;;;4.66;100.00;99361.22;4915457;29;20100;-70
2023/04/13 00:52:44;;;;;;;18.20;11.73;;;;;;;4.59;100.00;99370.81;4914789;29;20048;-70
2023/04/13 00:55:11;;;;;;;15.57;12.18;;;;;;;4.53;100.00;99371.41;4914811;29;20051;-71
2023/04/13 00:57:39;;;;;;;15.60;11.68;;;;;;;4.55;100.00;99380.03;4915232;29;20058;-71
2023/04/13 01:00:08;;;;;;;20.10;12.27;;;;;;;4.53;100.00;99387.34;4914315;29;20079;-72
2023/04/13 01:02:35;;;;;;;17.10;11.57;;;;;;;4.58;100.00;99390.38;4915319;29;20048;-72
2023/04/13 01:05:04;;;;;;;20.08;11.88;;;;;;;4.47;100.00;99399.41;4915094;29;20135;-71
2023/04/13 01:07:40;;;;;;;19.98;13.38;;;;;;;4.53;100.00;99400.63;4915623;29;20066;-71
2023/04/13 01:10:34;;;;;;;20.45;12.73;;;;;;;4.54;100.00;99413.75;4915379;29;20048;-71
2023/04/13 01:13:20;;;;;;;18.95;13.00;;;;;;;4.48;100.00;99421.50;4914371;29;20052;-71
2023/04/13 01:16:06;;;;;;;17.67;11.73;;;;;;;4.48;100.00;99416.19;4914591;29;20405;-71
2023/04/13 01:18:37;;;;;;;20.10;12.20;;;;;;;4.49;100.00;99401.94;4910536;29;20480;-71
2023/04/13 01:21:06;;;;;;;18.73;13.73;;;;;;;4.46;100.00;99399.56;4910535;29;20135;-71
2023/04/13 01:23:52;;;;;;;20.58;13.50;;;;;;;4.45;100.00;99417.34;4908336;29;20056;-71
2023/04/13 01:26:21;;;;;;;20.95;12.82;;;;;;;4.39;100.00;99438.34;4914615;29;20051;-71
2023/04/13 01:28:50;;;;;;;21.95;14.00;;;;;;;4.40;100.00;99440.00;4915237;29;20378;-70
2023/04/13 01:31:17;;;;;;;17.40;13.30;;;;;;;4.40;100.00;99450.63;4914088;29;20461;-72
2023/04/13 01:33:45;;;;;;;20.55;13.60;;;;;;;4.36;100.00;99462.50;4905494;29;20036;-71
2023/04/13 01:36:13;;;;;;;18.63;14.10;;;;;;;4.31;100.00;99465.59;4913350;29;20048;-71
2023/04/13 01:38:39;;;;;;;17.65;13.75;;;;;;;4.35;100.00;99448.41;4914220;29;20482;-70
2023/04/13 01:41:07;;;;;;;18.45;13.13;;;;;;;4.36;100.00;99460.69;4914610;29;20052;-70
2023/04/13 01:43:34;;;;;;;19.27;13.88;;;;;;;4.34;100.00;99458.16;4912799;29;20056;-71
2023/04/13 01:46:08;;;;;;;21.38;13.50;;;;;;;4.22;100.00;99463.88;4914686;29;20135;-70
2023/04/13 01:48:52;;;;;;;22.83;13.00;;;;;;;4.20;100.00;99471.97;4913378;29;20058;-71
2023/04/13 01:51:23;;;;;;;19.85;13.63;;;;;;;4.22;100.00;99483.28;4910974;29;20461;-71
2023/04/13 01:53:54;;;;;;;21.35;11.80;;;;;;;4.28;100.00;99492.47;4914513;29;20048;-71
2023/04/13 01:56:21;;;;;;;12.80;8.73;;;;;;;4.23;100.00;99494.72;4914811;29;20052;-72
2023/04/13 01:58:55;;;;;;;17.35;12.15;;;;;;;4.20;100.00;99503.00;4916412;29;20131;-71
2023/04/13 02:01:21;;;;;;;17.17;12.50;;;;;;;4.24;100.00;99499.03;4915128;29;20052;-71
2023/04/13 02:03:48;;;;;;;19.02;13.57;;;;;;;4.17;100.00;99500.63;4898221;29;20051;-71
2023/04/13 02:06:15;;;;;;;17.25;12.23;;;;;;;4.20;100.00;99518.91;4916299;29;20429;-71
2023/04/13 02:08:41;;;;;;;18.92;12.65;;;;;;;4.19;100.00;99510.13;4914400;29;20131;-71
2023/04/13 02:11:09;;;;;;;25.05;12.68;;;;;;;4.20;100.00;99511.78;4914249;29;20044;-71
2023/04/13 02:13:35;;;;;;;19.02;12.25;;;;;;;4.11;100.00;99515.34;4915147;29;20096;-70
2023/04/13 02:16:05;;;;;;;16.75;11.35;;;;;;;4.23;100.00;99516.81;4915230;29;20092;-71
2023/04/13 02:18:32;;;;;;;13.57;10.90;;;;;;;4.23;100.00;99503.53;4914162;29;20086;-71
2023/04/13 02:21:07;;;;;;;15.70;10.68;;;;;;;4.07;100.00;99508.63;4893958;29;20052;-71
2023/04/13 02:23:36;;;;;;;18.23;10.45;;;;;;;4.14;100.00;99514.19;4895691;29;20127;-71
2023/04/13 02:26:03;;;;;;;14.18;10.55;;;;;;;4.07;100.00;99516.59;4889398;29;20655;-72
2023/04/13 02:28:30;;;;;;;18.02;11.48;;;;;;;4.10;100.00;99519.81;4895990;29;20100;-71
2023/04/13 02:31:01;;;;;;;17.83;11.32;;;;;;;4.14;100.00;99504.44;4896356;29;20044;-71
2023/04/13 02:33:31;;;;;;;19.30;11.50;;;;;;;4.05;100.00;99513.28;4896221;29;20421;-71
2023/04/13 02:35:59;;;;;;;14.52;10.48;;;;;;;4.04;100.00;99514.28;4891983;29;20055;-72
2023/04/13 02:38:29;;;;;;;19.27;11.82;;;;;;;3.93;100.00;99517.97;4894760;29;20136;-72
2023/04/13 02:40:58;;;;;;;22.85;11.80;;;;;;;3.93;100.00;99520.63;4893627;29;20051;-72
2023/04/13 02:43:25;;;;;;;21.85;12.32;;;;;;;3.90;100.00;99523.56;4894774;29;20055;-71
2023/04/13 02:45:52;;;;;;;17.52;11.65;;;;;;;3.93;100.00;99533.00;4894106;29;20056;-72
2023/04/13 02:48:19;;;;;;;16.23;11.13;;;;;;;3.88;100.00;99535.28;4891814;29;20462;-71
2023/04/13 02:50:46;;;;;;;19.13;11.82;;;;;;;3.73;100.00;99525.16;4893426;29;20055;-72
2023/04/13 02:53:14;;;;;;;20.67;10.85;;;;;;;3.88;100.00;99522.84;4893604;29;20458;-71
2023/04/13 02:55:40;;;;;;;14.68;10.40;;;;;;;3.73;100.00;99532.28;4894460;29;20059;-71
2023/04/13 02:58:08;;;;;;;18.15;9.70;;;;;;;3.69;100.00;99525.56;4889005;29;20421;-71
2023/04/13 03:00:34;;;;;;;15.82;9.43;;;;;;;3.68;100.00;99523.91;4894064;29;20378;-71
2023/04/13 03:03:05;;;;;;;14.70;9.30;;;;;;;3.63;100.00;99524.34;4894161;29;20059;-71
2023/04/13 03:05:32;;;;;;;23.80;11.00;;;;;;;3.53;100.00;99537.63;4893973;29;20055;-72
2023/04/13 03:07:59;;;;;;;16.05;8.95;;;;;;;3.47;100.00;99532.91;4894084;29;20178;-72
2023/04/13 03:10:25;;;;;;;17.25;9.57;;;;;;;3.61;100.00;99528.94;4891740;29;20100;-72
2023/04/13 03:12:52;;;;;;;16.42;9.30;;;;;;;3.52;100.00;99538.63;4893946;29;20045;-71
2023/04/13 03:15:19;;;;;;;16.30;8.13;;;;;;;3.50;100.00;99553.00;4895026;29;20059;-71
2023/04/13 03:17:45;;;;;;;20.42;9.07;;;;;;;3.47;100.00;99538.19;4894165;29;20045;-71
2023/04/13 03:20:14;;;;;;;18.17;7.80;;;;;;;3.47;100.00;99547.97;4903598;29;20052;-72
2023/04/13 03:22:44;;;;;;;15.82;8.10;;;;;;;3.58;100.00;99550.44;4912727;29;20461;-71
2023/04/13 03:25:11;;;;;;;20.13;7.95;;;;;;;3.66;100.00;99547.94;4912829;29;20135;-71
2023/04/13 03:27:38;;;;;;;16.65;7.82;;;;;;;3.65;100.00;99550.72;4913175;29;20064;-71
2023/04/13 03:30:06;;;;;;;10.43;7.22;;;;;;;3.68;100.00;99551.25;4924581;29;20034;-71
2023/04/13 03:32:32;;;;;;;18.13;7.82;;;;;;;3.74;100.00;99545.38;4937066;29;20028;-69
2023/04/13 03:34:59;;;;;;;13.70;7.88;;;;;;;3.68;100.00;99548.59;4937298;29;20024;-72
2023/04/13 03:37:28;;;;;;;14.20;7.68;;;;;;;3.73;100.00;99549.03;4936934;29;20036;-70
2023/04/13 03:39:57;;;;;;;13.35;7.53;;;;;;;3.68;100.00;99534.50;4937260;29;20090;-72
2023/04/13 03:42:23;;;;;;;14.05;7.18;;;;;;;3.67;100.00;99546.94;4937371;29;20378;-71
2023/04/13 03:44:50;;;;;;;17.48;6.63;;;;;;;3.74;100.00;99545.38;4937518;29;20040;-72
2023/04/13 03:47:16;;;;;;;17.08;6.72;;;;;;;3.69;100.00;99549.44;4912675;29;20024;-72
2023/04/13 03:49:43;;;;;;;13.30;6.22;;;;;;;3.54;100.00;99552.56;4937130;29;20068;-71
2023/04/13 03:52:10;;;;;;;12.85;6.38;;;;;;;3.64;100.00;99555.19;4937030;29;20101;-71
2023/04/13 03:54:36;;;;;;;15.40;6.40;;;;;;;3.56;100.00;99553.25;4937062;29;20032;-71
2023/04/13 03:57:03;;;;;;;16.90;6.10;;;;;;;3.52;100.00;99564.31;4902465;29;20040;-73
2023/04/13 03:59:30;;;;;;;18.00;7.43;;;;;;;3.55;100.00;99569.31;4892401;29;20059;-73
2023/04/13 04:01:57;;;;;;;13.63;6.95;;;;;;;3.56;100.00;99571.00;4904570;29;20055;-74
2023/04/13 04:04:24;;;;;;;14.88;6.07;;;;;;;3.47;100.00;99577.97;4916097;29;20055;-73
2023/04/13 04:06:50;;;;;;;14.43;6.88;;;;;;;3.40;100.00;99574.22;4916695;29;20052;-72
2023/04/13 04:09:17;;;;;;;15.55;6.70;;;;;;;3.40;100.00;99574.22;4916376;29;20130;-73
2023/04/13 04:11:44;;;;;;;14.20;6.55;;;;;;;3.45;100.00;99579.09;4915319;29;20052;-71
2023/04/13 04:14:10;;;;;;;21.42;7.57;;;;;;;3.48;100.00;99584.97;4916330;29;21568;-71
2023/04/13 04:16:37;;;;;;;13.52;6.43;;;;;;;3.30;100.00;99584.00;4915597;29;20044;-71
2023/04/13 04:19:03;;;;;;;11.20;6.55;;;;;;;3.30;100.00;99592.78;4915132;29;20052;-71
2023/04/13 04:21:33;;;;;;;17.98;6.97;;;;;;;3.27;100.00;99601.00;4916348;29;20127;-71
2023/04/13 04:24:05;;;;;;;17.63;7.30;;;;;;;3.26;100.00;99594.06;4916643;29;20048;-71
2023/04/13 04:26:31;;;;;;;14.75;7.68;;;;;;;3.34;100.00;99596.84;4914311;29;20040;-71
2023/04/13 04:29:00;;;;;;;12.93;7.72;;;;;;;3.38;100.00;99592.09;4915075;29;20544;-71
2023/04/13 04:31:33;;;;;;;16.83;7.68;;;;;;;3.33;100.00;99591.69;4915399;29;20127;-71
2023/04/13 04:34:02;;;;;;;14.93;7.35;;;;;;;3.30;100.00;99605.22;4915590;29;20051;-71
2023/04/13 04:36:29;;;;;;;12.77;7.45;;;;;;;3.20;100.00;99612.31;4888975;29;20055;-71
2023/04/13 04:39:00;;;;;;;15.70;8.82;;;;;;;3.00;100.00;99620.28;4915184;29;20044;-71
2023/04/13 04:41:29;;;;;;;14.93;9.35;;;;;;;3.06;100.00;99616.22;4914550;29;20048;-72
2023/04/13 04:44:01;;;;;;;20.02;9.18;;;;;;;3.04;100.00;99618.19;4915617;29;20108;-71
2023/04/13 04:46:28;;;;;;;;;;;;;;;3.06;100.00;99605.63;4913716;29;20059;-70
2023/04/13 04:48:59;;;;;;;13.00;9.02;;;;;;;3.13;100.00;99601.44;4915475;29;19927;-71
2023/04/13 04:51:26;;;;;;;19.88;9.00;;;;;;;3.19;100.00;99608.00;4914822;29;20052;-71
2023/04/13 04:53:53;;;;;;;19.98;9.63;;;;;;;3.23;100.00;99606.75;4914995;29;20128;-70
2023/04/13 04:56:20;;;;;;;21.35;11.07;;;;;;;3.25;100.00;99608.28;4915939;29;20417;-70
2023/04/13 04:58:47;;;;;;;20.17;9.93;;;;;;;3.31;100.00;99610.38;4914393;29;20055;-70
2023/04/13 05:01:13;;;;;;;18.90;10.65;;;;;;;2.94;100.00;99609.41;4915445;29;20051;-71
2023/04/13 05:03:39;;;;;;;25.38;11.40;;;;;;;3.13;100.00;99620.00;4914655;29;20107;-70
2023/04/13 05:06:07;;;;;;;22.83;11.10;;;;;;;3.08;100.00;99606.34;4914467;29;20084;-71
2023/04/13 05:08:33;;;;;;;19.60;9.98;;;;;;;3.00;100.00;99603.56;4914040;29;20044;-71
2023/04/13 05:11:00;;;;;;;21.15;11.00;;;;;;;3.08;100.00;99595.75;4914059;29;20103;-69
2023/04/13 05:13:26;;;;;;;20.88;10.88;;;;;;;2.96;100.00;99607.44;4914251;29;20118;-71
2023/04/13 05:15:53;;;;;;;19.48;11.32;;;;;;;2.98;100.00;99605.50;4915319;29;20052;-71
2023/04/13 05:18:19;;;;;;;19.63;11.10;;;;;;;2.96;100.00;99608.28;4914028;29;20453;-71
2023/04/13 05:20:46;;;;;;;19.95;11.18;;;;;;;3.06;100.00;99618.88;4914158;29;20436;-70
2023/04/13 05:23:12;;;;;;;21.95;11.20;;;;;;;2.96;100.00;99628.63;4914179;29;20083;-71
2023/04/13 05:25:39;;;;;;;15.52;10.85;;;;;;;2.99;100.00;99631.00;4914242;29;20458;-69
2023/04/13 05:28:05;;;;;;;23.08;11.63;;;;;;;2.95;100.00;99637.56;4913561;29;20048;-70
2023/04/13 05:30:32;;;;;;;20.30;11.35;;;;;;;2.91;100.00;99632.53;4914403;29;20098;-71
2023/04/13 05:33:04;;;;;;;19.52;10.93;;;;;;;2.99;100.00;99625.72;4910799;29;20130;-71
2023/04/13 05:35:31;;;;;;;22.42;10.63;;;;;;;2.91;100.00;99632.53;4913543;29;20048;-71
2023/04/13 05:37:59;;;;;;;22.15;11.75;;;;;;;2.96;100.00;99633.94;4913618;29;20055;-71
2023/04/13 05:40:27;;;;;;;24.20;11.77;;;;;;;2.96;100.00;99631.28;4914294;29;20103;-71
2023/04/13 05:42:55;;;;;;;20.80;11.35;;;;;;;2.89;100.00;99646.88;4930629;29;20056;-71
2023/04/13 05:45:21;;;;;;;22.60;12.80;;;;;;;2.97;100.00;99656.81;4939254;29;20052;-69
2023/04/13 05:47:49;;;;;;;22.05;12.25;;;;;;;2.95;100.00;99658.75;4938767;29;20055;-69
2023/04/13 05:50:15;;;;;;;15.48;10.27;;;;;;;2.98;100.00;99661.97;4938979;29;20058;-69
2023/04/13 05:52:42;;;;;;;21.10;11.02;;;;;;;2.89;100.00;99666.28;4921965;29;20052;-69
2023/04/13 05:55:09;;;;;;;17.85;10.20;;;;;;;2.92;100.00;99657.22;4938463;29;20083;-70
2023/04/13 05:57:35;;;;;;;24.48;10.73;;;;;;;3.08;100.00;99675.25;4938458;29;20062;-70
2023/04/13 06:00:03;;;;;;;21.88;10.75;;;;;;;3.04;100.00;99668.53;4938504;29;20028;-71
2023/04/13 06:02:30;;;;;;;18.17;10.77;;;;;;;3.11;100.00;99670.50;4938538;29;20036;-71
2023/04/13 06:04:57;;;;;;;15.00;9.90;;;;;;;3.08;100.00;99680.53;4929866;29;20113;-71
2023/04/13 06:07:24;;;;;;;17.80;10.55;;;;;;;3.20;100.00;99684.72;4938557;29;20067;-70
2023/04/13 06:09:51;;;;;;;22.45;10.30;;;;;;;3.19;100.00;99691.00;4938542;29;20032;-70
2023/04/13 06:12:19;;;;;;;15.27;9.13;;;;;;;3.22;100.00;99698.69;4922745;29;20032;-70
2023/04/13 06:14:46;;;;;;;16.95;9.18;;;;;;;3.11;100.00;99696.16;4937796;29;20109;-71
2023/04/13 06:17:12;;;;;;;15.43;9.20;;;;;;;3.01;100.00;99701.44;4938259;29;20059;-70
2023/04/13 06:19:39;;;;;;;18.80;9.52;;;;;;;3.18;100.00;99699.09;4937476;29;20043;-70
2023/04/13 06:22:06;;;;;;;15.32;8.95;;;;;;;3.16;100.00;99693.91;4937585;29;20084;-71
2023/04/13 06:24:32;;;;;;;17.42;9.05;;;;;;;3.28;100.00;99702.59;4937728;29;20095;-71
2023/04/13 06:26:59;;;;;;;17.65;9.50;;;;;;;3.33;100.00;99700.38;4937538;29;20036;-72
2023/04/13 06:29:26;;;;;;;13.75;7.78;;;;;;;3.40;100.00;99701.47;4938628;29;20060;-71
2023/04/13 06:31:53;;;;;;;12.98;7.95;;;;;;;3.27;100.00;99717.66;4921242;29;20055;-71
2023/04/13 06:34:19;;;;;;;12.13;7.88;;;;;;;3.38;100.00;99709.59;4936803;29;20066;-70
2023/04/13 06:36:46;;;;;;;11.55;6.72;;;;;;;3.32;100.00;99714.59;4937271;29;20042;-70
2023/04/13 06:39:14;;;;;;;17.13;7.28;;;;;;;3.31;100.00;99727.03;4937115;29;20027;-69
2023/04/13 06:41:40;;;;;;;14.40;6.60;;;;;;;3.53;100.00;99722.44;4937389;29;20039;-70
2023/04/13 06:44:07;;;;;;;23.45;6.47;;;;;;;3.51;100.00;99734.97;4937611;29;20092;-72
2023/04/13 06:46:34;;;;;;;20.35;7.15;;;;;;;3.58;100.00;99750.19;4931614;29;20032;-71
2023/04/13 06:49:00;;;;;;;12.93;6.13;;;;;;;3.66;100.00;99741.56;4937620;29;20032;-72
2023/04/13 06:51:27;;;;;;;9.82;6.45;;;;;;;3.79;100.00;99758.03;4938103;29;20032;-72
2023/04/13 06:53:53;;;;;;;19.45;5.35;;;;;;;3.69;100.00;99765.16;4921980;29;20574;-72
2023/04/13 06:56:20;;;;;;;17.77;5.32;;;;;;;3.95;100.00;99772.53;4900539;29;20039;-73
2023/04/13 06:58:46;;;;;;;13.63;5.72;;;;;;;3.77;100.00;99764.44;4914055;29;20083;-73
2023/04/13 07:01:14;;;;;;;9.90;5.50;;;;;;;3.77;100.00;99772.41;4920259;29;20044;-73
2023/04/13 07:03:41;;;;;;;14.00;6.97;;;;;;;3.92;100.00;99775.47;4937207;29;20045;-73
2023/04/13 07:06:08;;;;;;;13.77;6.05;;;;;;;3.84;100.00;99769.06;4922753;29;20029;-72
2023/04/13 07:08:34;;;;;;;11.80;5.97;;;;;;;4.03;100.00;99768.19;4916720;29;20088;-72
2023/04/13 07:11:01;;;;;;;9.85;4.95;;;;;;;4.01;100.00;99766.69;4917318;29;20056;-72
2023/04/13 07:13:28;;;;;;;11.45;5.20;;;;;;;3.98;100.00;99770.44;4918660;29;20028;-70
2023/04/13 07:15:54;;;;;;;12.65;4.60;;;;;;;3.79;100.00;99779.25;4918065;29;20044;-70
2023/04/13 07:18:21;;;;;;;10.65;5.43;;;;;;;4.05;100.00;99770.72;4913832;29;20084;-70
2023/04/13 07:20:47;;;;;;;11.65;5.20;;;;;;;4.21;100.00;99775.44;4917561;29;20072;-70
2023/04/13 07:23:14;;;;;;;11.25;4.85;;;;;;;4.26;100.00;99779.34;4917864;29;20049;-69
2023/04/13 07:25:40;;;;;;;12.02;5.07;;;;;;;4.31;100.00;99781.56;4917396;29;20044;-71
2023/04/13 07:28:07;;;;;;;12.30;4.97;;;;;;;4.19;100.00;99780.91;4917752;29;20097;-71
2023/04/13 07:30:33;;;;;;;8.98;4.70;;;;;;;4.37;100.00;99783.66;4907040;29;20120;-71
2023/04/13 07:33:00;;;;;;;9.98;4.65;;;;;;;4.30;100.00;99780.72;4918231;29;20056;-72
2023/04/13 07:35:27;;;;;;;10.23;4.45;;;;;;;4.47;100.00;99773.03;4921486;29;20052;-70
2023/04/13 07:37:53;;;;;;;9.52;4.78;;;;;;;4.58;100.00;99772.88;4921972;29;20112;-71
2023/04/13 07:40:20;;;;;;;8.93;4.13;;;;;;;4.60;100.00;99778.06;4920923;29;20037;-69
2023/04/13 07:42:49;;;;;;;11.80;4.35;;;;;;;4.62;100.00;99784.88;4912059;29;20056;-70
2023/04/13 07:45:16;;;;;;;10.07;4.35;;;;;;;4.71;100.00;99791.97;4920658;29;20041;-70
2023/04/13 07:47:43;;;;;;;7.50;4.05;;;;;;;4.82;100.00;99791.78;4920288;29;20044;-71
2023/04/13 07:50:10;;;;;;;10.27;4.07;;;;;;;4.72;100.00;99791.00;4921047;29;20056;-71
2023/04/13 07:52:37;;;;;;;8.05;3.55;;;;;;;4.84;100.00;99804.94;4921644;29;20056;-70
2023/04/13 07:55:04;;;;;;;12.25;3.85;;;;;;;5.05;100.00;99789.59;4921309;29;20088;-70
2023/04/13 07:57:31;;;;;;;5.53;3.28;;;;;;;5.05;100.00;99792.25;4920669;29;20033;-69
2023/04/13 07:59:57;;;;;;;7.57;2.88;;;;;;;5.28;100.00;99800.69;4920265;29;20053;-70
2023/04/13 08:02:24;;;;;;;9.18;3.53;;;;;;;5.56;100.00;99797.16;4930776;29;20055;-71
2023/04/13 08:04:54;;;;;;;6.43;3.25;;;;;;;5.68;100.00;99804.75;4925785;29;20054;-73
2023/04/13 08:07:21;;;;;;;5.85;2.63;;;;;;;5.59;100.00;99810.97;4932615;29;20048;-72
2023/04/13 08:09:51;;;;;;;5.53;2.75;;;;;;;5.64;100.00;99808.72;4924757;29;20052;-72
2023/04/13 08:12:18;;;;;;;6.93;2.63;;;;;;;5.69;100.00;99808.25;4922834;29;20482;-71
2023/04/13 08:14:45;;;;;;;6.75;2.78;;;;;;;5.98;100.00;99816.03;4932432;29;20036;-73
2023/04/13 08:17:11;;;;;;;5.32;2.15;;;;;;;6.22;100.00;99815.41;4932927;29;20044;-73
2023/04/13 08:19:39;;;;;;;8.90;2.72;;;;;;;6.65;100.00;99817.25;4913437;29;20428;-71
2023/04/13 08:22:05;;;;;;;3.40;1.90;;;;;;;6.58;100.00;99821.53;4914602;29;20085;-72
2023/04/13 08:24:34;;;;;;;5.88;1.92;;;;;;;6.74;100.00;99814.63;4915088;29;20059;-72
2023/04/13 08:27:01;;;;;;;7.85;2.35;;;;;;;6.73;100.00;99820.94;4912470;29;20045;-72
2023/04/13 08:29:28;;;;;;;8.80;2.13;;;;;;;6.61;100.00;99837.22;4919479;29;20096;-71
2023/04/13 08:31:55;;;;;;;4.80;1.95;;;;;;;6.56;100.00;99834.16;4903801;29;20088;-71
2023/04/13 08:34:22;;;;;;;4.38;1.88;;;;;;;6.62;100.00;99836.22;4919875;29;20028;-72
2023/04/13 08:36:49;;;;;;;7.03;2.08;;;;;;;6.75;100.00;99841.13;4920270;29;20051;-71
2023/04/13 08:39:16;;;;;;;9.02;1.95;;;;;;;6.51;100.00;99827.66;4919601;29;20108;-72
2023/04/13 08:41:44;;;;;;;6.38;2.00;;;;;;;6.60;100.00;99835.53;4917726;29;20033;-72
2023/04/13 08:44:12;;;;;;;4.30;1.80;;;;;;;6.90;100.00;99830.72;4918641;29;20112;-71
2023/04/13 08:46:44;;;;;;;7.50;1.70;;;;;;;7.00;100.00;99833.28;4901142;29;20074;-73
2023/04/13 08:49:11;;;;;;;3.95;1.42;;;;;;;6.91;100.00;99835.91;4914049;29;20064;-72
2023/04/13 08:51:40;;;;;;;8.68;2.30;;;;;;;6.64;100.00;99831.56;4916398;29;20469;-74
2023/04/13 08:54:07;;;;;;;13.18;2.30;;;;;;;6.41;100.00;99838.38;4911969;29;20052;-71
2023/04/13 08:56:38;;;;;;;7.20;1.98;;;;;;;6.65;100.00;99835.06;4914897;29;20048;-74
2023/04/13 08:59:14;;;;;;;3.92;1.45;;;;;;;6.16;100.00;99840.81;4918155;29;20103;-73
2023/04/13 09:01:44;;;;;;;13.02;1.95;;;;;;;6.12;100.00;99838.63;4922356;29;20051;-73
2023/04/13 09:04:12;;;;;;;5.72;1.58;;;;;;;6.30;100.00;99842.13;4934756;29;20051;-73
2023/04/13 09:06:41;;;;;;;4.18;1.30;;;;;;;6.36;100.00;99836.19;4934959;29;20036;-72
2023/04/13 09:09:13;;;;;;;6.40;1.33;;;;;;;6.43;100.00;99836.41;4898438;29;20117;-74
2023/04/13 09:11:41;;;;;;;8.52;1.60;;;;;;;6.69;100.00;99847.91;4901728;29;20052;-72
2023/04/13 09:14:08;;;;;;;2.92;1.40;;;;;;;7.11;100.00;99835.66;4917618;29;20060;-73
2023/04/13 09:16:42;;;;;;;8.32;1.48;;;;;;;7.37;100.00;99840.94;4917611;29;20445;-73
2023/04/13 09:19:11;;;;;;;4.30;1.38;;;;;;;7.52;100.00;99849.16;4917535;29;20063;-71
2023/04/13 09:21:43;;;;;;;6.18;1.70;;;;;;;7.50;100.00;99846.69;4918718;29;20071;-73
2023/04/13 09:24:11;;;;;;;12.80;1.58;;;;;;;7.99;100.00;99844.16;4918912;29;20045;-71
2023/04/13 09:26:41;;;;;;;7.00;1.48;;;;;;;8.08;100.00;99850.31;4919028;29;20045;-72
2023/04/13 09:29:20;;;;;;;6.75;1.20;;;;;;;8.23;100.00;99853.19;4919427;29;20032;-72
2023/04/13 09:31:47;;;;;;;5.82;1.55;;;;;;;8.03;100.00;99858.00;4918450;29;20068;-73
2023/04/13 09:34:24;;;;;;;2.58;1.00;;;;;;;7.53;100.00;99857.00;4919099;29;20040;-73
2023/04/13 09:36:51;;;;;;;1.92;0.93;;;;;;;7.50;100.00;99857.34;4919122;29;20060;-73
2023/04/13 09:39:25;;;;;;;7.95;1.48;;;;;;;7.68;100.00;99870.59;4919616;29;20032;-73
2023/04/13 09:41:53;;;;;;;2.85;1.45;;;;;;;8.14;100.00;99865.69;4918557;29;20036;-73
2023/04/13 09:44:23;;;;;;;4.07;1.40;;;;;;;7.91;100.00;99865.47;4918877;29;20038;-73
2023/04/13 09:47:15;;;;;;;8.15;1.60;;;;;;;8.69;100.00;99865.03;4919481;29;20033;-73
2023/04/13 09:49:42;;;;;;;4.47;1.10;;;;;;;8.95;100.00;99870.16;4916338;29;20055;-73
2023/04/13 09:52:22;;;;;;;4.95;1.30;;;;;;;9.85;94.62;99863.66;4919295;29;20057;-73
2023/04/13 09:54:54;;;;;;;5.10;1.02;;;;;;;11.22;76.72;99857.31;4919760;29;20051;-73
2023/04/13 09:57:27;;;;;;;;;;;;;;;10.52;78.75;99860.38;4918775;29;20112;-73
2023/04/13 09:59:56;;;;;;;4.55;1.38;;;;;;;10.65;81.08;99861.41;4919447;29;19908;-73
2023/04/13 10:02:23;;;;;;;5.53;1.08;;;;;;;11.71;68.10;99859.41;4928770;29;20047;-73
2023/04/13 10:04:51;;;;;;;7.28;1.50;;;;;;;10.54;72.22;99864.50;4937586;29;20059;-73
2023/04/13 10:07:18;;;;;;;5.97;1.27;;;;;;;10.59;72.75;99859.47;4920409;29;20119;-73
2023/04/13 10:09:44;;;;;;;6.00;1.20;;;;;;;10.62;72.52;99859.09;4919063;29;20096;-74
2023/04/13 10:12:15;;;;;;;8.10;1.58;;;;;;;10.38;74.26;99865.47;4920187;29;20059;-73
2023/04/13 10:14:44;;;;;;;5.17;1.03;;;;;;;11.56;67.87;99872.84;4919841;29;20033;-73
2023/04/13 10:17:36;;;;;;;2.88;1.25;;;;;;;10.70;68.78;99860.88;4918632;29;20037;-73
2023/04/13 10:20:11;;;;;;;4.30;1.70;;;;;;;9.72;74.13;99880.31;4918685;29;20085;-73
2023/04/13 10:22:44;;;;;;;6.40;1.67;;;;;;;9.10;80.06;99889.03;4914536;29;20040;-73
2023/04/13 10:25:14;;;;;;;6.75;1.45;;;;;;;8.92;85.33;99881.22;4917554;29;20061;-72
2023/04/13 10:27:59;;;;;;;6.13;1.30;;;;;;;8.41;87.92;99882.44;4905000;29;20036;-72
2023/04/13 10:30:26;;;;;;;17.13;1.48;;;;;;;8.70;85.04;99879.22;4917415;29;20057;-72
2023/04/13 10:33:08;;;;;;;8.07;1.50;;;;;;;8.72;86.17;99872.72;4884357;29;20049;-72
2023/04/13 10:35:36;;;;;;;5.07;1.48;;;;;;;8.55;87.29;99871.91;4861534;29;20064;-72
2023/04/13 10:38:03;;;;;;;4.88;1.40;;;;;;;8.55;91.05;99873.72;4899586;29;20040;-72
2023/04/13 10:40:41;;;;;;;5.70;1.55;;;;;;;8.32;94.86;99876.22;4898303;29;20063;-71
2023/04/13 10:43:08;;;;;;;3.55;1.13;;;;;;;8.87;90.80;99872.84;4898434;29;20061;-73
2023/04/13 10:45:36;;;;;;;6.03;1.00;;;;;;;8.78;93.02;99884.56;4898034;29;21638;-72
2023/04/13 10:48:03;;;;;;;6.72;1.52;;;;;;;8.45;94.58;99876.56;4893272;29;20124;-70
2023/04/13 10:50:30;;;;;;;9.77;1.85;;;;;;;8.40;99.58;99875.38;4884632;29;20053;-72
2023/04/13 10:53:00;;;;;;;3.45;1.40;;;;;;;8.73;94.63;99886.91;4886612;29;20120;-72
2023/04/13 10:55:27;;;;;;;9.10;1.13;;;;;;;9.12;88.83;99886.19;4879576;29;20049;-72
2023/04/13 10:57:55;;;;;;;6.43;1.20;;;;;;;8.92;90.59;99891.91;4886286;29;20073;-71
2023/04/13 11:00:27;;;;;;;5.35;1.33;;;;;;;8.84;89.59;99894.59;4872053;29;20049;-72
2023/04/13 11:03:13;;;;;;;5.40;0.98;;;;;;;8.83;91.27;99890.25;4915371;29;20060;-72
2023/04/13 11:05:42;;;;;;;6.43;1.13;;;;;;;8.90;90.21;99895.75;4927541;29;20048;-72
2023/04/13 11:08:08;;;;;;;6.18;1.60;;;;;;;8.38;93.41;99907.63;4915648;29;20063;-71
2023/04/13 11:10:35;;;;;;;4.78;1.30;;;;;;;8.51;93.37;99916.00;4919942;29;20061;-71
2023/04/13 11:13:02;;;;;;;5.20;1.02;;;;;;;8.42;90.75;99895.59;4920894;29;20067;-71
2023/04/13 11:15:31;;;;;;;4.32;1.80;;;;;;;8.20;93.27;99906.97;4919164;29;20054;-72
2023/04/13 11:17:59;;;;;;;4.93;1.02;;;;;;;8.08;95.30;99909.91;4920435;29;20398;-72
2023/04/13 11:20:38;;;;;;;3.58;1.38;;;;;;;8.09;97.54;99903.59;4918156;29;20493;-72
2023/04/13 11:23:13;;;;;;;7.63;1.25;;;;;;;8.53;92.56;99905.97;4920434;29;20080;-72
2023/04/13 11:25:51;;;;;;;4.00;1.35;;;;;;;8.54;93.21;99914.84;4919067;29;20127;-72
2023/04/13 11:28:17;;;;;;;4.60;1.23;;;;;;;8.53;89.94;99913.97;4919066;29;20477;-73
2023/04/13 11:30:57;;;;;;;7.25;2.50;;;;;;;8.58;88.66;99914.34;4922472;29;20044;-72
2023/04/13 11:33:28;;;;;;;7.07;1.40;;;;;;;8.54;88.66;99918.34;4915652;29;20075;-73